Time;durP1;ratioP1;P1;durP2;ratioP2;P2;SDS_P1;SDS_P2;PMS_P1;PMS_P2;Temp;Humidity;BMP_temperature;BMP_pressure;BME280_temperature;BME280_humidity;BME280_pressure;Samples;Min_cycle;Max_cycle;Signal;HPM_P1;HPM_P2
2023/12/01 00:01:45;;;;;;;21.80;13.60;;;;;;;;;;6059341;23;20417;-85
2023/12/01 00:04:34;;;;;;;16.77;12.70;;;;;;;;;;6045950;23;20416;-87
2023/12/01 00:10:12;;;;;;;22.43;13.80;;;;;;;;;;6066968;23;20440;-87
2023/12/01 00:13:28;;;;;;;18.63;13.17;;;;;;;;;;6060018;23;20405;-86
2023/12/01 00:16:27;;;;;;;17.57;12.63;;;;;;;;;;6078155;23;20418;-88
2023/12/01 00:19:06;;;;;;;20.80;13.17;;;;;;;;;;6031110;23;20442;-85
2023/12/01 00:22:12;;;;;;;20.47;13.27;;;;;;;;;;6057390;23;20445;-85
2023/12/01 00:25:00;;;;;;;20.00;13.53;;;;;;;;;;6055308;23;20437;-87
2023/12/01 00:31:52;;;;;;;21.03;13.07;;;;;;;;;;6061740;23;20369;-86
2023/12/01 00:35:00;;;;;;;23.53;14.47;;;;;;;;;;6042619;23;20469;-86
2023/12/01 00:38:10;;;;;;;;;;;;;;;;;;;;;
2023/12/01 00:40:45;;;;;;;21.43;12.77;;;;;;;;;;6057229;23;20434;-87
2023/12/01 00:43:49;;;;;;;23.40;14.93;;;;;;;;;;6018230;23;20450;-84
2023/12/01 00:46:51;;;;;;;21.33;13.47;;;;;;;;;;6050720;23;20429;-83
2023/12/01 00:49:57;;;;;;;20.50;13.07;;;;;;;;;;6033153;23;20460;-85
2023/12/01 00:52:30;;;;;;;21.97;15.50;;;;;;;;;;6023620;23;20897;-87
2023/12/01 00:55:16;;;;;;;19.10;12.90;;;;;;;;;;6027166;23;20415;-87
2023/12/01 00:58:04;;;;;;;21.80;13.70;;;;;;;;;;6027109;23;20406;-88
2023/12/01 01:01:05;;;;;;;21.70;13.17;;;;;;;;;;6047990;23;20432;-86
2023/12/01 01:03:47;;;;;;;22.80;13.13;;;;;;;;;;6024694;23;20466;-89
2023/12/01 01:06:20;;;;;;;26.67;15.90;;;;;;;;;;6024967;23;20445;-86
2023/12/01 01:09:04;;;;;;;25.03;14.87;;;;;;;;;;6029846;23;20481;-85
2023/12/01 01:11:47;;;;;;;28.17;15.60;;;;;;;;;;6034348;23;20414;-86
2023/12/01 01:14:16;;;;;;;23.50;13.97;;;;;;;;;;6029740;23;20406;-87
2023/12/01 01:17:00;;;;;;;28.07;14.10;;;;;;;;;;6024480;23;20438;-85
2023/12/01 01:19:38;;;;;;;24.83;14.13;;;;;;;;;;6056874;23;20437;-86
2023/12/01 01:22:27;;;;;;;30.77;17.13;;;;;;;;;;6039244;23;20481;-86
2023/12/01 01:28:22;;;;;;;33.10;17.27;;;;;;;;;;6009728;23;20400;-85
2023/12/01 01:31:15;;;;;;;32.00;16.53;;;;;;;;;;6059507;23;20468;-86
2023/12/01 01:33:56;;;;;;;29.30;17.17;;;;;;;;;;6070045;23;20905;-88
2023/12/01 01:37:45;;;;;;;28.73;16.60;;;;;;;;;;5129204;27;20597;-87
2023/12/01 01:40:47;;;;;;;28.33;17.13;;;;;;;;;;5091729;28;20486;-86
2023/12/01 01:43:38;;;;;;;;;;;;;;;;;;;;;
2023/12/01 01:46:32;;;;;;;26.20;16.33;;;;;;;;;;5092613;28;21150;-86
2023/12/01 01:49:35;;;;;;;32.43;18.47;;;;;;;;;;5095683;28;20503;-85
2023/12/01 01:52:34;;;;;;;28.00;16.13;;;;;;;;;;5095842;28;20454;-84
2023/12/01 01:55:21;;;;;;;29.90;16.33;;;;;;;;;;5094921;28;20592;-83
2023/12/01 01:58:03;;;;;;;28.57;16.60;;;;;;;;;;5087616;28;20435;-86
2023/12/01 02:00:59;;;;;;;29.03;18.33;;;;;;;;;;5277167;22;20492;-88
2023/12/01 02:04:21;;;;;;;28.33;16.53;;;;;;;;;;5071303;28;20470;-87
2023/12/01 02:07:08;;;;;;;29.43;17.83;;;;;;;;;;5047856;28;20423;-85
2023/12/01 02:09:44;;;;;;;30.63;17.53;;;;;;;;;;5062205;28;20523;-87
2023/12/01 02:12:28;;;;;;;34.63;19.00;;;;;;;;;;5077514;28;20437;-88
2023/12/01 02:15:10;;;;;;;29.90;17.27;;;;;;;;;;5051621;28;20496;-85
2023/12/01 02:20:59;;;;;;;25.97;15.80;;;;;;;;;;5069521;28;20455;-88
2023/12/01 02:23:44;;;;;;;33.90;15.97;;;;;;;;;;5063387;28;20531;-86
2023/12/01 02:26:35;;;;;;;24.33;15.93;;;;;;;;;;5063335;28;20448;-88
2023/12/01 02:29:38;;;;;;;27.60;17.57;;;;;;;;;;5060656;28;20576;-87
2023/12/01 02:32:08;;;;;;;29.50;17.93;;;;;;;;;;5051178;28;20449;-89
2023/12/01 02:35:26;;;;;;;28.23;17.07;;;;;;;;;;5066039;28;20486;-87
2023/12/01 02:38:34;;;;;;;;;;;;;;;;;;;;;
2023/12/01 02:51:57;;;;;;;26.93;14.30;;;;;;;;;;5926873;22;6518051;-86
2023/12/01 02:54:30;;;;;;;24.10;13.30;;;;;;;;;;6198619;23;20209;-90
2023/12/01 02:57:00;;;;;;;25.10;14.90;;;;;;;;;;6172954;23;20412;-86
2023/12/01 02:59:36;;;;;;;23.63;14.30;;;;;;;;;;6171531;23;20472;-88
2023/12/01 03:02:09;;;;;;;21.40;13.53;;;;;;;;;;6173591;23;20476;-87
2023/12/01 03:04:42;;;;;;;31.43;16.80;;;;;;;;;;6183718;23;20404;-88
2023/12/01 03:07:25;;;;;;;22.90;14.80;;;;;;;;;;6212417;23;20404;-87
2023/12/01 03:09:54;;;;;;;26.93;14.47;;;;;;;;;;6157871;23;20498;-85
2023/12/01 03:12:29;;;;;;;22.93;13.50;;;;;;;;;;6177023;23;20413;-88
2023/12/01 03:15:08;;;;;;;26.83;16.33;;;;;;;;;;6174370;23;20444;-87
2023/12/01 03:17:39;;;;;;;27.93;14.30;;;;;;;;;;6177664;23;20416;-88
2023/12/01 03:20:29;;;;;;;22.53;12.83;;;;;;;;;;6178218;23;20444;-87
2023/12/01 03:23:09;;;;;;;24.53;12.47;;;;;;;;;;6174938;23;20389;-87
2023/12/01 03:25:57;;;;;;;26.43;14.43;;;;;;;;;;6169751;23;20439;-86
2023/12/01 03:28:39;;;;;;;22.80;14.50;;;;;;;;;;6178831;23;20413;-86
2023/12/01 03:31:15;;;;;;;25.27;13.67;;;;;;;;;;6177566;23;20444;-85
2023/12/01 03:33:46;;;;;;;24.00;14.47;;;;;;;;;;6175305;23;20416;-85
2023/12/01 03:36:28;;;;;;;27.03;16.33;;;;;;;;;;6176696;23;20404;-86
2023/12/01 03:39:09;;;;;;;19.23;13.23;;;;;;;;;;6202486;23;20444;-87
2023/12/01 03:41:43;;;;;;;29.90;14.83;;;;;;;;;;6201724;23;20976;-88
2023/12/01 03:44:17;;;;;;;26.27;13.90;;;;;;;;;;6199029;23;20406;-88
2023/12/01 03:47:04;;;;;;;28.03;15.00;;;;;;;;;;6171767;23;20400;-85
2023/12/01 03:49:34;;;;;;;28.47;15.10;;;;;;;;;;6167790;23;20467;-86
2023/12/01 03:52:08;;;;;;;23.00;13.50;;;;;;;;;;6150957;23;20429;-87
2023/12/01 03:54:44;;;;;;;27.97;14.70;;;;;;;;;;6132953;23;20434;-86
2023/12/01 03:57:18;;;;;;;32.77;16.73;;;;;;;;;;6132302;23;20418;-86
2023/12/01 03:59:50;;;;;;;25.70;16.00;;;;;;;;;;6134203;23;20477;-89
2023/12/01 04:02:34;;;;;;;24.10;13.10;;;;;;;;;;6132805;23;20414;-87
2023/12/01 04:05:05;;;;;;;22.97;14.33;;;;;;;;;;6108318;23;20426;-88
2023/12/01 04:07:40;;;;;;;27.67;14.47;;;;;;;;;;6141605;23;20395;-88
2023/12/01 04:10:10;;;;;;;23.23;12.93;;;;;;;;;;6142126;23;20450;-86
2023/12/01 04:12:49;;;;;;;25.57;14.97;;;;;;;;;;6142398;23;20406;-89
2023/12/01 04:15:25;;;;;;;21.67;13.20;;;;;;;;;;6146362;23;20419;-87
2023/12/01 04:18:13;;;;;;;26.90;15.43;;;;;;;;;;6172417;23;20397;-89
2023/12/01 04:21:10;;;;;;;26.77;14.17;;;;;;;;;;6113192;23;20450;-89
2023/12/01 04:23:38;;;;;;;23.00;14.90;;;;;;;;;;6144678;23;20390;-87
2023/12/01 04:26:19;;;;;;;30.50;16.87;;;;;;;;;;6136958;23;20761;-86
2023/12/01 04:28:56;;;;;;;27.80;13.63;;;;;;;;;;6134721;23;20456;-87
2023/12/01 04:31:40;;;;;;;25.30;13.83;;;;;;;;;;6134895;23;20454;-88
2023/12/01 04:34:31;;;;;;;24.13;14.20;;;;;;;;;;6157601;23;20415;-87
2023/12/01 04:37:09;;;;;;;22.33;13.50;;;;;;;;;;6134720;23;20398;-91
2023/12/01 04:39:46;;;;;;;27.10;13.37;;;;;;;;;;6131990;23;20497;-86
2023/12/01 04:42:15;;;;;;;28.00;15.20;;;;;;;;;;6129742;23;20411;-87
2023/12/01 04:44:45;;;;;;;29.00;15.50;;;;;;;;;;6155767;23;20493;-87
2023/12/01 04:47:36;;;;;;;26.37;14.60;;;;;;;;;;6157284;23;20397;-86
2023/12/01 04:50:23;;;;;;;32.50;18.30;;;;;;;;;;6134323;23;20445;-87
2023/12/01 04:53:02;;;;;;;27.03;15.70;;;;;;;;;;6157578;23;20460;-87
2023/12/01 04:55:33;;;;;;;26.70;15.43;;;;;;;;;;6138470;23;20918;-85
2023/12/01 04:58:06;;;;;;;24.20;13.73;;;;;;;;;;6187348;23;20421;-90
2023/12/01 05:00:40;;;;;;;27.37;13.27;;;;;;;;;;6168416;23;20473;-87
2023/12/01 05:03:14;;;;;;;25.57;14.30;;;;;;;;;;6169786;23;20856;-87
2023/12/01 05:05:49;;;;;;;25.20;14.80;;;;;;;;;;6162663;23;20406;-84
2023/12/01 05:08:20;;;;;;;28.00;14.73;;;;;;;;;;6159144;23;20417;-86
2023/12/01 05:10:50;;;;;;;24.20;13.77;;;;;;;;;;6184834;23;20438;-86
2023/12/01 05:13:24;;;;;;;21.80;12.80;;;;;;;;;;6160576;23;20943;-87
2023/12/01 05:16:14;;;;;;;21.10;12.97;;;;;;;;;;6166283;23;20469;-88
2023/12/01 05:18:45;;;;;;;22.50;14.40;;;;;;;;;;6174676;23;20394;-89
2023/12/01 05:21:14;;;;;;;18.87;12.33;;;;;;;;;;6176225;23;20482;-87
2023/12/01 05:23:47;;;;;;;22.23;12.90;;;;;;;;;;6189529;23;20406;-86
2023/12/01 05:26:14;;;;;;;18.83;12.00;;;;;;;;;;6158597;23;20445;-88
2023/12/01 05:28:46;;;;;;;20.93;13.13;;;;;;;;;;6158562;23;20402;-85
2023/12/01 05:31:30;;;;;;;23.93;11.70;;;;;;;;;;6158246;23;20509;-87
2023/12/01 05:34:05;;;;;;;22.80;13.03;;;;;;;;;;6158222;23;20410;-87
2023/12/01 05:36:36;;;;;;;24.37;14.17;;;;;;;;;;6157429;23;20417;-87
2023/12/01 05:39:12;;;;;;;22.80;14.03;;;;;;;;;;6157713;23;20530;-87
2023/12/01 05:41:43;;;;;;;22.50;13.10;;;;;;;;;;6155511;23;20444;-87
2023/12/01 05:44:16;;;;;;;22.00;13.23;;;;;;;;;;6156534;23;20733;-85
2023/12/01 05:46:47;;;;;;;22.70;12.83;;;;;;;;;;6156161;23;20838;-86
2023/12/01 05:49:14;;;;;;;19.77;12.53;;;;;;;;;;6155939;23;20915;-87
2023/12/01 05:51:47;;;;;;;19.23;12.97;;;;;;;;;;6144600;23;20536;-87
2023/12/01 05:54:26;;;;;;;23.50;12.90;;;;;;;;;;6128674;23;20514;-87
2023/12/01 05:56:55;;;;;;;19.60;12.17;;;;;;;;;;6127157;23;20491;-85
2023/12/01 05:59:25;;;;;;;18.67;12.03;;;;;;;;;;6157288;23;20438;-85
2023/12/01 06:02:10;;;;;;;21.07;13.33;;;;;;;;;;6139527;23;20477;-87
2023/12/01 06:04:54;;;;;;;19.80;12.60;;;;;;;;;;6139980;23;20640;-87
2023/12/01 06:07:24;;;;;;;21.00;12.23;;;;;;;;;;6139763;23;20939;-89
2023/12/01 06:09:52;;;;;;;18.50;12.50;;;;;;;;;;6140796;23;20450;-90
2023/12/01 06:12:25;;;;;;;23.23;12.07;;;;;;;;;;6126609;23;20403;-87
2023/12/01 06:15:01;;;;;;;19.23;12.10;;;;;;;;;;6133063;23;20413;-86
2023/12/01 06:17:34;;;;;;;18.10;11.00;;;;;;;;;;6142927;23;20442;-84
2023/12/01 06:20:05;;;;;;;21.20;13.63;;;;;;;;;;6142142;23;20525;-87
2023/12/01 06:22:34;;;;;;;15.70;10.90;;;;;;;;;;6130357;23;20448;-87
2023/12/01 06:25:16;;;;;;;18.87;11.97;;;;;;;;;;6157577;23;20419;-86
2023/12/01 06:27:52;;;;;;;20.50;11.43;;;;;;;;;;6131098;23;20388;-88
2023/12/01 06:30:28;;;;;;;18.67;10.73;;;;;;;;;;6135979;23;20550;-86
2023/12/01 06:32:56;;;;;;;21.70;12.27;;;;;;;;;;6135808;23;20436;-88
2023/12/01 06:35:24;;;;;;;22.83;12.90;;;;;;;;;;6153454;23;20938;-86
2023/12/01 06:37:57;;;;;;;19.47;11.40;;;;;;;;;;6126418;23;20422;-85
2023/12/01 06:40:24;;;;;;;17.87;11.63;;;;;;;;;;6126217;23;20490;-84
2023/12/01 06:42:55;;;;;;;13.33;9.23;;;;;;;;;;6150926;23;20437;-87
2023/12/01 06:45:35;;;;;;;15.27;9.00;;;;;;;;;;6127468;23;20962;-86
2023/12/01 06:48:10;;;;;;;14.80;9.93;;;;;;;;;;6126920;23;20403;-86
2023/12/01 06:50:40;;;;;;;15.63;10.20;;;;;;;;;;6126952;23;20776;-87
2023/12/01 06:53:13;;;;;;;18.00;9.63;;;;;;;;;;6155148;23;20508;-86
2023/12/01 06:55:43;;;;;;;18.63;10.00;;;;;;;;;;6185805;23;20464;-86
2023/12/01 06:58:14;;;;;;;13.93;9.23;;;;;;;;;;6201072;23;20424;-88
2023/12/01 07:00:44;;;;;;;13.73;7.90;;;;;;;;;;6200686;23;20472;-88
2023/12/01 07:03:17;;;;;;;12.77;8.43;;;;;;;;;;6189909;23;20456;-88
2023/12/01 07:05:51;;;;;;;11.37;7.93;;;;;;;;;;6200568;23;20504;-85
2023/12/01 07:08:26;;;;;;;12.77;8.57;;;;;;;;;;6205064;23;20782;-86
2023/12/01 07:11:00;;;;;;;12.20;7.47;;;;;;;;;;6174315;23;20459;-85
2023/12/01 07:13:34;;;;;;;14.70;9.40;;;;;;;;;;6163496;23;20418;-85
2023/12/01 07:16:09;;;;;;;15.00;8.27;;;;;;;;;;6161571;23;20402;-85
2023/12/01 07:18:48;;;;;;;10.23;7.37;;;;;;;;;;6155688;23;21048;-87
2023/12/01 07:21:16;;;;;;;13.87;8.77;;;;;;;;;;6155716;23;20427;-83
2023/12/01 07:23:47;;;;;;;9.50;6.47;;;;;;;;;;6155281;23;21035;-86
2023/12/01 07:26:15;;;;;;;9.83;7.77;;;;;;;;;;6152183;23;20422;-86
2023/12/01 07:28:46;;;;;;;13.53;7.07;;;;;;;;;;6156963;23;20414;-84
2023/12/01 07:31:25;;;;;;;14.63;7.53;;;;;;;;;;6159971;23;20876;-86
2023/12/01 07:33:54;;;;;;;9.80;6.60;;;;;;;;;;6155947;23;20418;-87
2023/12/01 07:36:25;;;;;;;10.83;6.90;;;;;;;;;;6154851;23;20927;-87
2023/12/01 07:38:58;;;;;;;12.33;8.10;;;;;;;;;;6154557;23;20477;-87
2023/12/01 07:41:30;;;;;;;11.33;7.87;;;;;;;;;;6154357;23;20449;-86
2023/12/01 07:44:02;;;;;;;10.87;7.50;;;;;;;;;;6157239;23;20888;-88
2023/12/01 07:46:32;;;;;;;11.60;7.23;;;;;;;;;;6155043;23;20406;-85
2023/12/01 07:49:00;;;;;;;11.60;7.40;;;;;;;;;;6154326;23;20473;-86
2023/12/01 07:51:38;;;;;;;9.90;7.10;;;;;;;;;;6152763;23;20442;-87
2023/12/01 07:54:09;;;;;;;11.27;7.73;;;;;;;;;;6153728;23;20418;-86
2023/12/01 07:56:39;;;;;;;12.37;8.13;;;;;;;;;;6157515;23;20418;-85
2023/12/01 07:59:12;;;;;;;10.97;7.73;;;;;;;;;;6154693;23;20431;-86
2023/12/01 08:01:41;;;;;;;10.37;7.03;;;;;;;;;;6154429;23;20443;-87
2023/12/01 08:04:19;;;;;;;12.33;7.00;;;;;;;;;;6151530;23;20411;-85
2023/12/01 08:06:49;;;;;;;11.20;8.13;;;;;;;;;;6153111;23;20415;-86
2023/12/01 08:09:21;;;;;;;9.57;6.50;;;;;;;;;;6153345;23;20462;-86
2023/12/01 08:11:49;;;;;;;9.53;6.90;;;;;;;;;;6158141;23;20410;-87
2023/12/01 08:14:20;;;;;;;11.07;6.73;;;;;;;;;;6167930;23;20928;-84
2023/12/01 08:16:55;;;;;;;9.10;7.20;;;;;;;;;;6152697;23;20442;-87
2023/12/01 08:19:27;;;;;;;9.63;6.40;;;;;;;;;;6150683;23;20434;-88
2023/12/01 08:21:58;;;;;;;9.73;6.00;;;;;;;;;;6150382;23;20455;-86
2023/12/01 08:24:41;;;;;;;12.00;5.87;;;;;;;;;;6151584;23;20415;-86
2023/12/01 08:27:10;;;;;;;8.23;6.90;;;;;;;;;;6154726;23;20438;-88
2023/12/01 08:29:42;;;;;;;8.20;5.93;;;;;;;;;;6150702;23;20458;-86
2023/12/01 08:32:11;;;;;;;8.60;6.40;;;;;;;;;;6150517;23;20405;-86
2023/12/01 08:34:54;;;;;;;7.90;5.80;;;;;;;;;;6150408;23;20887;-87
2023/12/01 08:37:30;;;;;;;10.30;6.20;;;;;;;;;;6150220;23;20881;-87
2023/12/01 08:40:00;;;;;;;8.00;5.33;;;;;;;;;;6150040;23;20435;-86
2023/12/01 08:42:28;;;;;;;8.07;4.90;;;;;;;;;;6149997;23;21195;-85
2023/12/01 08:45:00;;;;;;;8.20;5.60;;;;;;;;;;6150858;23;20923;-86
2023/12/01 08:47:30;;;;;;;8.10;5.70;;;;;;;;;;6165203;23;20413;-86
2023/12/01 08:50:11;;;;;;;8.60;6.20;;;;;;;;;;6163945;23;20433;-87
2023/12/01 08:52:49;;;;;;;7.97;5.77;;;;;;;;;;6152894;23;20414;-83
2023/12/01 08:55:21;;;;;;;11.33;6.43;;;;;;;;;;6151373;23;20403;-86
2023/12/01 08:57:54;;;;;;;10.50;6.87;;;;;;;;;;6151081;23;20407;-87
2023/12/01 09:00:25;;;;;;;10.20;6.03;;;;;;;;;;6149921;23;20458;-86
2023/12/01 09:02:58;;;;;;;11.13;6.33;;;;;;;;;;6150296;23;21345;-84
2023/12/01 09:05:35;;;;;;;8.87;5.07;;;;;;;;;;6150143;23;20453;-86
2023/12/01 09:08:05;;;;;;;8.10;5.10;;;;;;;;;;6150705;23;20430;-84
2023/12/01 09:10:36;;;;;;;10.03;5.70;;;;;;;;;;6158306;23;20407;-85
2023/12/01 09:13:03;;;;;;;10.80;6.37;;;;;;;;;;6165694;23;20602;-84
2023/12/01 09:15:36;;;;;;;5.90;4.30;;;;;;;;;;6164159;23;20436;-86
2023/12/01 09:18:03;;;;;;;6.03;3.47;;;;;;;;;;6159070;23;20415;-87
2023/12/01 09:20:34;;;;;;;5.00;4.00;;;;;;;;;;6153436;23;20442;-86
2023/12/01 09:23:03;;;;;;;5.20;3.83;;;;;;;;;;6151488;23;20540;-87
2023/12/01 09:25:35;;;;;;;6.43;4.50;;;;;;;;;;6151551;23;20954;-86
2023/12/01 09:28:03;;;;;;;6.87;4.57;;;;;;;;;;6164838;23;20518;-87
2023/12/01 09:30:32;;;;;;;8.07;4.40;;;;;;;;;;6167573;23;20434;-87
2023/12/01 09:33:03;;;;;;;5.57;3.93;;;;;;;;;;6163117;23;21301;-87
2023/12/01 09:35:35;;;;;;;6.73;4.00;;;;;;;;;;6153873;23;20411;-87
2023/12/01 09:38:21;;;;;;;9.27;5.10;;;;;;;;;;6151532;23;20426;-86
2023/12/01 09:40:52;;;;;;;6.57;4.27;;;;;;;;;;6150245;23;20465;-85
2023/12/01 09:43:23;;;;;;;7.50;4.53;;;;;;;;;;6155167;23;20416;-87
2023/12/01 09:46:01;;;;;;;8.77;4.57;;;;;;;;;;6162132;23;20402;-85
2023/12/01 09:48:32;;;;;;;8.23;5.50;;;;;;;;;;6169882;23;20422;-87
2023/12/01 09:51:03;;;;;;;9.33;6.30;;;;;;;;;;6167563;23;21222;-87
2023/12/01 09:53:37;;;;;;;8.23;5.53;;;;;;;;;;6159631;23;20414;-83
2023/12/01 09:56:10;;;;;;;8.13;5.13;;;;;;;;;;6156336;23;20390;-86
2023/12/01 09:58:45;;;;;;;7.97;5.17;;;;;;;;;;6156398;23;20450;-85
2023/12/01 10:01:21;;;;;;;9.67;5.07;;;;;;;;;;6146794;23;20757;-87
2023/12/01 10:04:05;;;;;;;7.10;4.77;;;;;;;;;;6153637;23;20455;-85
2023/12/01 10:06:39;;;;;;;8.80;5.40;;;;;;;;;;6153842;23;20435;-86
2023/12/01 10:09:14;;;;;;;7.53;5.07;;;;;;;;;;6154905;23;20525;-85
2023/12/01 10:11:45;;;;;;;8.57;5.17;;;;;;;;;;6155277;23;20502;-86
2023/12/01 10:14:16;;;;;;;8.67;5.30;;;;;;;;;;6164516;23;20438;-87
2023/12/01 10:17:12;;;;;;;9.23;6.70;;;;;;;;;;6137653;23;20426;-85
2023/12/01 10:19:59;;;;;;;8.80;5.30;;;;;;;;;;6151187;23;20430;-86
2023/12/01 10:22:30;;;;;;;5.50;4.57;;;;;;;;;;6154061;23;20858;-85
2023/12/01 10:25:14;;;;;;;8.83;5.53;;;;;;;;;;6160170;23;20410;-86
2023/12/01 10:27:42;;;;;;;8.20;5.57;;;;;;;;;;6169129;23;20853;-87
2023/12/01 10:30:16;;;;;;;6.97;5.07;;;;;;;;;;6151984;23;20439;-86
2023/12/01 10:32:53;;;;;;;8.07;5.50;;;;;;;;;;6147193;23;20414;-85
2023/12/01 10:35:25;;;;;;;8.80;6.03;;;;;;;;;;6151563;23;20441;-87
2023/12/01 10:38:07;;;;;;;8.63;5.93;;;;;;;;;;6148983;23;20473;-86
2023/12/01 10:40:40;;;;;;;7.70;4.23;;;;;;;;;;6153003;23;20524;-87
2023/12/01 10:43:24;;;;;;;7.90;4.97;;;;;;;;;;6149455;23;20494;-87
2023/12/01 10:49:09;;;;;;;5.97;4.93;;;;;;;;;;6152323;23;20435;-87
2023/12/01 10:51:45;;;;;;;7.80;5.33;;;;;;;;;;6146956;23;20461;-85
2023/12/01 10:54:29;;;;;;;7.90;5.10;;;;;;;;;;6144371;23;20439;-85
2023/12/01 10:57:26;;;;;;;10.80;5.33;;;;;;;;;;6150543;23;20407;-87
2023/12/01 11:00:41;;;;;;;6.47;4.80;;;;;;;;;;6149684;23;20442;-86
2023/12/01 11:03:17;;;;;;;8.53;5.20;;;;;;;;;;6157514;23;20784;-85
2023/12/01 11:06:03;;;;;;;9.47;5.40;;;;;;;;;;6152700;23;20504;-86
2023/12/01 11:09:11;;;;;;;7.07;4.70;;;;;;;;;;6150778;23;20407;-87
2023/12/01 11:12:06;;;;;;;5.23;4.07;;;;;;;;;;6149853;23;20486;-87
2023/12/01 11:14:44;;;;;;;5.70;4.40;;;;;;;;;;6151264;23;20432;-86
2023/12/01 11:17:39;;;;;;;8.20;4.87;;;;;;;;;;6156475;23;20438;-86
2023/12/01 11:20:39;;;;;;;5.80;4.60;;;;;;;;;;6126123;23;20454;-88
2023/12/01 11:23:24;;;;;;;4.93;4.13;;;;;;;;;;6159906;23;20450;-86
2023/12/01 11:26:33;;;;;;;4.53;3.30;;;;;;;;;;6170378;23;20423;-86
2023/12/01 11:29:17;;;;;;;7.57;3.77;;;;;;;;;;6160272;23;20438;-87
2023/12/01 11:31:58;;;;;;;7.37;3.90;;;;;;;;;;6164408;23;20438;-87
2023/12/01 11:34:42;;;;;;;5.07;4.07;;;;;;;;;;6173497;23;20407;-84
2023/12/01 11:37:45;;;;;;;6.03;3.93;;;;;;;;;;6154757;23;20414;-83
2023/12/01 11:40:22;;;;;;;5.23;4.13;;;;;;;;;;6172341;23;20429;-87
2023/12/01 11:43:02;;;;;;;4.23;3.00;;;;;;;;;;6170355;23;20447;-85
2023/12/01 11:46:08;;;;;;;5.97;3.47;;;;;;;;;;6177136;23;20399;-86
2023/12/01 11:49:06;;;;;;;6.10;4.03;;;;;;;;;;6166092;23;20452;-86
2023/12/01 11:51:51;;;;;;;6.30;4.00;;;;;;;;;;6170653;23;20421;-88
2023/12/01 11:54:23;;;;;;;5.20;4.53;;;;;;;;;;6163243;23;21029;-86
2023/12/01 11:56:59;;;;;;;4.27;3.57;;;;;;;;;;6162212;23;20398;-87
2023/12/01 11:59:32;;;;;;;5.83;4.10;;;;;;;;;;6159814;23;20423;-85
2023/12/01 12:01:59;;;;;;;5.33;4.20;;;;;;;;;;6159890;23;20442;-88
2023/12/01 12:04:37;;;;;;;5.13;4.37;;;;;;;;;;6165738;23;20932;-84
2023/12/01 12:07:11;;;;;;;5.70;4.73;;;;;;;;;;6161905;23;20434;-85
2023/12/01 12:09:38;;;;;;;5.00;3.73;;;;;;;;;;6156884;23;20454;-88
2023/12/01 12:12:13;;;;;;;5.70;4.60;;;;;;;;;;6157623;23;20419;-87
2023/12/01 12:14:46;;;;;;;4.73;4.30;;;;;;;;;;6159877;23;20984;-86
2023/12/01 12:17:28;;;;;;;5.60;4.10;;;;;;;;;;6158057;23;20450;-85
2023/12/01 12:20:01;;;;;;;9.43;5.47;;;;;;;;;;6159456;23;20485;-86
2023/12/01 12:22:39;;;;;;;8.80;4.40;;;;;;;;;;6160433;23;20450;-87
2023/12/01 12:25:25;;;;;;;9.30;4.40;;;;;;;;;;6160234;23;20446;-88
2023/12/01 12:27:53;;;;;;;6.93;5.00;;;;;;;;;;6157836;23;20430;-86
2023/12/01 12:30:23;;;;;;;6.47;4.83;;;;;;;;;;6157961;23;20855;-87
2023/12/01 12:32:54;;;;;;;7.73;4.57;;;;;;;;;;6157505;23;20418;-84
2023/12/01 12:35:24;;;;;;;8.77;5.53;;;;;;;;;;6161078;23;20425;-85
2023/12/01 12:38:07;;;;;;;8.57;5.20;;;;;;;;;;6161386;23;20502;-86
2023/12/01 12:40:35;;;;;;;8.07;4.43;;;;;;;;;;6162504;23;20435;-85
2023/12/01 13:25:31;;;;;;;8.80;5.53;;;;;;;;;;6186020;23;20453;-86
2023/12/01 14:14:15;;;;;;;7.90;4.90;;;;;;;;;;6199734;23;20454;-86
2023/12/01 14:17:07;;;;;;;8.50;5.83;;;;;;;;;;6194075;23;20405;-86
2023/12/01 14:19:35;;;;;;;10.83;5.30;;;;;;;;;;6180152;23;20445;-86
2023/12/01 14:22:05;;;;;;;12.40;6.07;;;;;;;;;;6171425;23;20469;-88
2023/12/01 14:24:47;;;;;;;11.60;7.10;;;;;;;;;;6195044;23;20397;-85
2023/12/01 14:27:20;;;;;;;8.90;6.93;;;;;;;;;;6169229;23;20428;-85
2023/12/01 14:30:00;;;;;;;12.90;6.93;;;;;;;;;;6170450;23;20492;-88
2023/12/01 14:32:39;;;;;;;9.63;7.00;;;;;;;;;;6170497;23;20422;-87
2023/12/01 14:35:11;;;;;;;10.80;7.40;;;;;;;;;;6168621;23;20382;-87
2023/12/01 14:37:54;;;;;;;12.83;7.00;;;;;;;;;;6173512;23;20416;-87
2023/12/01 14:40:27;;;;;;;10.97;6.20;;;;;;;;;;6166837;23;20549;-85
2023/12/01 14:43:01;;;;;;;12.03;7.07;;;;;;;;;;6174558;23;20500;-86
2023/12/01 15:15:45;;;;;;;;;;;;;;;;;;;;;
2023/12/01 15:22:18;;;;;;;13.30;7.43;;;;;;;;;;6159883;23;20386;-86
2023/12/01 15:25:49;;;;;;;;;;;;;;;;;;;;;
2023/12/01 15:28:34;;;;;;;11.87;6.97;;;;;;;;;;6157559;23;20450;-86
2023/12/01 15:31:29;;;;;;;15.60;8.40;;;;;;;;;;6168156;23;20442;-86
2023/12/01 15:34:39;;;;;;;12.27;7.50;;;;;;;;;;6166713;23;20391;-84
2023/12/01 15:37:45;;;;;;;14.83;7.50;;;;;;;;;;6163487;23;20381;-86
2023/12/01 15:43:48;;;;;;;10.33;6.40;;;;;;;;;;6095004;23;20483;-85
2023/12/01 15:46:54;;;;;;;12.30;7.07;;;;;;;;;;6086658;23;20447;-88
2023/12/01 15:50:01;;;;;;;13.97;7.83;;;;;;;;;;6117527;23;20449;-87
2023/12/01 15:53:01;;;;;;;15.10;7.73;;;;;;;;;;6096121;23;20467;-86
2023/12/01 15:55:32;;;;;;;16.87;9.70;;;;;;;;;;6084663;23;20423;-86
2023/12/01 15:58:58;;;;;;;13.63;7.70;;;;;;;;;;6084259;23;20401;-86
2023/12/01 16:08:57;;;;;;;;;;;;;;;;;;;;;
2023/12/01 16:15:04;;;;;;;12.40;7.97;;;;;;;;;;6158111;23;20451;-84
2023/12/01 16:17:38;;;;;;;12.67;7.40;;;;;;;;;;6172195;23;20415;-86
2023/12/01 16:20:10;;;;;;;11.10;7.33;;;;;;;;;;6166822;23;20489;-85
2023/12/01 16:22:51;;;;;;;10.40;7.57;;;;;;;;;;6165218;23;20442;-87
2023/12/01 16:25:24;;;;;;;9.07;6.83;;;;;;;;;;6160796;23;20437;-86
2023/12/01 16:28:25;;;;;;;15.70;8.10;;;;;;;;;;6158802;23;20379;-85
2023/12/01 16:31:09;;;;;;;13.70;8.17;;;;;;;;;;6156093;23;20429;-88
2023/12/01 16:33:44;;;;;;;13.70;8.20;;;;;;;;;;6159646;23;20438;-84
2023/12/01 16:36:31;;;;;;;11.20;8.40;;;;;;;;;;6145505;23;20402;-87
2023/12/01 16:39:18;;;;;;;13.17;8.47;;;;;;;;;;6161970;23;20435;-86
2023/12/01 16:41:45;;;;;;;14.90;8.47;;;;;;;;;;6159601;23;20448;-85
2023/12/01 16:44:14;;;;;;;13.03;7.40;;;;;;;;;;6164749;23;20435;-85
2023/12/01 16:47:10;;;;;;;15.80;8.87;;;;;;;;;;6135291;23;20465;-85
2023/12/01 16:49:38;;;;;;;14.80;9.50;;;;;;;;;;6155595;23;20450;-85
2023/12/01 18:00:13;;;;;;;17.73;10.00;;;;;;;;;;6155304;23;21569;-86
2023/12/01 18:02:41;;;;;;;17.33;10.43;;;;;;;;;;6153914;23;20485;-87
2023/12/01 18:05:11;;;;;;;24.03;10.33;;;;;;;;;;6154405;23;20754;-88
2023/12/01 18:07:48;;;;;;;19.40;9.80;;;;;;;;;;6153778;23;20410;-85
2023/12/01 18:10:31;;;;;;;14.37;8.50;;;;;;;;;;6154642;23;20435;-87
2023/12/01 18:13:04;;;;;;;13.93;9.03;;;;;;;;;;6156425;23;20449;-86
2023/12/01 18:15:32;;;;;;;14.30;9.23;;;;;;;;;;6164591;23;20391;-88
2023/12/01 18:18:19;;;;;;;17.57;8.90;;;;;;;;;;6154804;23;20399;-85
2023/12/01 18:20:47;;;;;;;17.90;9.03;;;;;;;;;;6155403;23;20434;-87
2023/12/01 18:23:16;;;;;;;19.00;8.03;;;;;;;;;;6153474;23;20438;-86
2023/12/01 18:25:46;;;;;;;21.27;9.50;;;;;;;;;;6154202;23;20415;-87
2023/12/01 18:28:17;;;;;;;16.57;9.40;;;;;;;;;;6153019;23;20406;-86
2023/12/01 18:30:59;;;;;;;17.50;8.87;;;;;;;;;;6153271;23;20430;-84
2023/12/01 18:33:26;;;;;;;14.30;9.40;;;;;;;;;;6156843;23;20900;-85
2023/12/01 18:35:54;;;;;;;16.63;9.50;;;;;;;;;;6159040;23;20418;-85
2023/12/01 18:38:25;;;;;;;14.63;9.47;;;;;;;;;;6158837;23;20478;-86
2023/12/01 18:40:52;;;;;;;17.37;9.70;;;;;;;;;;6158592;23;20459;-85
2023/12/01 18:43:27;;;;;;;18.73;9.20;;;;;;;;;;6160714;23;20544;-85
2023/12/01 18:46:08;;;;;;;16.77;9.80;;;;;;;;;;6164758;23;20410;-85
2023/12/01 18:48:41;;;;;;;14.47;9.77;;;;;;;;;;6168882;23;20450;-84
2023/12/01 18:51:20;;;;;;;20.73;10.57;;;;;;;;;;6153466;23;20530;-85
2023/12/01 18:53:59;;;;;;;17.10;9.50;;;;;;;;;;6169632;23;20409;-85
2023/12/01 18:56:27;;;;;;;14.43;9.13;;;;;;;;;;6172264;23;20391;-87
2023/12/01 18:58:54;;;;;;;15.60;8.70;;;;;;;;;;6163226;23;20443;-87
2023/12/01 19:01:44;;;;;;;12.47;8.40;;;;;;;;;;6156673;23;20430;-84
2023/12/01 19:04:13;;;;;;;16.17;7.60;;;;;;;;;;6131258;23;20470;-85
2023/12/01 19:06:43;;;;;;;14.30;8.50;;;;;;;;;;6156874;23;20442;-86
2023/12/01 19:09:23;;;;;;;;;;;;;;;;;;;;;
2023/12/01 19:12:02;;;;;;;12.20;7.37;;;;;;;;;;6154901;23;20750;-85
2023/12/01 19:15:04;;;;;;;15.30;9.53;;;;;;;;;;6126723;23;20418;-85
2023/12/01 19:17:36;;;;;;;15.10;8.90;;;;;;;;;;6131379;23;20410;-82
2023/12/01 19:20:07;;;;;;;15.53;9.93;;;;;;;;;;6129105;23;20439;-84
2023/12/01 19:22:41;;;;;;;10.53;6.90;;;;;;;;;;6129649;23;20395;-87
2023/12/01 19:25:09;;;;;;;11.60;7.70;;;;;;;;;;6133349;23;20418;-84
2023/12/01 19:27:40;;;;;;;16.10;8.63;;;;;;;;;;6132884;23;20762;-86
2023/12/01 19:30:08;;;;;;;13.27;7.67;;;;;;;;;;6131350;23;20434;-84
2023/12/01 19:32:36;;;;;;;12.47;8.23;;;;;;;;;;6133514;23;20415;-86
2023/12/01 19:35:10;;;;;;;13.50;7.57;;;;;;;;;;6133325;23;20437;-87
2023/12/01 19:37:43;;;;;;;13.27;7.83;;;;;;;;;;6133126;23;20422;-87